Terminal Aerodrome Forecast
Issued by NWS

Home | Current Version | Previous Version | Text Only | Print | Product List | Glossary On
Versions: 1 2 3 4 5 6 7 8 9 10 11 12 13 14 15 16 17 18 19 20 21 22 23 24 25 26 27 28 29 30 31 32 33 34 35 36 37 38 39 40 41
000
FTUS41 KBOX 062324
TAFBAF
TAF
KBAF 062324Z 0700/0724 19005KT P6SM SCT050
     FM070600 VRB03KT P6SM BKN020
     FM070900 VRB03KT P6SM BKN010
     FM071200 16004KT P6SM BKN020
     FM071600 17007KT P6SM BKN040
     FM071800 18009KT 6SM -RA BKN035=

USA.gov is the U.S. government's official web portal to all federal, state and local government web resources and services.